Whiteman Air Force Base
KSZL : rendu visible

Aérodrome :











RETROUVEZ-NOUS SUR...

 
LOGIN :

S'inscrire | Disclaimer

   EN    FR    IT 

 









Légende :    VFR   VFR Marginal   IFR   IFR Intensif   IFR Très Intensif
Visi : 
Plafond : 
>= 8 km
>= 3000ft
5 à 8 km
1000 à 3000 ft
1500m à 5 km
500 à 1000 ft
800 à 1500m
200 à 500 ft
< 800m
< 200 ft
Symboles :   Orages  Brouillard  Fortes neiges  Fortes précipitations  Vent > 20 kt






- Altitude de l'aérodrome : 870 ft


KSZL - Whiteman Air Force Base

DERNIER METAR :
  • 191456Z 30008KT 10SM FEW200 09/07 A2987 RMK AO2A SLP120 T00910074 52025 $

METARs EXPIRÉS :
  • 191356Z 26005KT 10SM FEW250 06/06 A2986 RMK AO2A SLP117 T00590059 $
  • 191256Z 29004KT 10SM FEW030 05/05 A2983 RMK AO2A SLP107 T00500050 $

TAF TAF KSZL
Valide du 19 à 11h jusqu'au 20 à 17h UTC


191100Z 1911/2017 30012KT 9999 SKC QNH2980INS
BECMG 1922/1923 18010KT 9999 SCT100 QNH2987INS
BECMG 2014/2015 16015G25KT 9999 FEW030 QNH2987INS TX18/1920Z TN07/1912Z



MET'MAP, la Météo Aéronautique d'un coup d'oeil ! - Copyright ORBIFLY Décembre 2007 - Disclaimer

ORBIFLY MET'MAP TEAM :

Programmation & Développement : Alexandra Zaïnal
Conception & Développement : Baudouin d'Aumeries
Co-Programmation & Développement : Marc-Olivier Méhu
Soutien technique & logistique : Manuel Goepfert

Contact : metmap@orbifly.com




SOURCES & CREDITS :

   NOAA       Earth
Advisory